createdAt,value
2022-08-02T00:00:21.070Z,77.60
2022-08-02T00:02:53.547Z,77.91
2022-08-02T00:05:26.886Z,77.36
2022-08-02T00:07:59.253Z,78.17
2022-08-02T00:10:31.759Z,78.40
2022-08-02T00:13:04.294Z,78.22
2022-08-02T00:15:36.654Z,78.15
2022-08-02T00:18:09.078Z,77.36
2022-08-02T00:20:42.134Z,76.53
2022-08-02T00:23:14.666Z,77.99
2022-08-02T00:25:54.863Z,76.40
2022-08-02T00:28:29.148Z,76.58
2022-08-02T00:31:01.598Z,77.86
2022-08-02T00:34:27.087Z,78.99
2022-08-02T00:36:27.205Z,80.60
2022-08-02T00:38:59.599Z,80.22
2022-08-02T00:41:32.062Z,80.95
2022-08-02T00:44:04.836Z,80.62
2022-08-02T00:46:37.267Z,80.68
2022-08-02T00:49:09.903Z,79.97
2022-08-02T00:51:43.046Z,80.68
2022-08-02T00:54:15.487Z,80.53
2022-08-02T00:56:50.134Z,78.45
2022-08-02T00:59:23.649Z,79.00
2022-08-02T01:01:58.298Z,79.98
2022-08-02T01:04:40.647Z,80.62
2022-08-02T01:07:14.123Z,81.19
2022-08-02T01:09:46.812Z,80.94
2022-08-02T01:12:19.208Z,80.10
2022-08-02T01:14:53.374Z,79.51
2022-08-02T01:17:32.211Z,79.92
2022-08-02T01:20:11.919Z,80.92
2022-08-02T01:23:05.359Z,80.91
2022-08-02T01:26:04.366Z,80.86
2022-08-02T01:28:43.198Z,81.07
2022-08-02T01:31:20.910Z,80.97
2022-08-02T01:34:02.382Z,80.83
2022-08-02T01:36:39.047Z,80.84
2022-08-02T01:39:26.930Z,80.74
2022-08-02T01:42:01.861Z,81.88
2022-08-02T01:44:38.489Z,82.47
2022-08-02T01:47:17.395Z,82.04
2022-08-02T01:49:54.214Z,81.79
2022-08-02T01:52:29.206Z,82.14
2022-08-02T01:55:06.839Z,82.56
2022-08-02T01:57:48.570Z,82.85
2022-08-02T02:00:24.077Z,82.67
2022-08-02T02:02:58.780Z,82.54
2022-08-02T02:05:33.340Z,83.45
2022-08-02T02:08:09.243Z,83.44
2022-08-02T02:10:44.991Z,83.35
2022-08-02T02:13:19.307Z,84.13
2022-08-02T02:15:54.481Z,84.38
2022-08-02T02:18:30.478Z,84.24
2022-08-02T02:21:02.999Z,84.14
2022-08-02T02:23:35.886Z,83.82
2022-08-02T02:26:13.395Z,84.01
2022-08-02T02:28:47.606Z,83.42
2022-08-02T02:31:21.294Z,83.86
2022-08-02T02:34:01.730Z,83.78
2022-08-02T02:36:36.831Z,83.60
2022-08-02T02:39:14.110Z,83.90
2022-08-02T02:41:48.703Z,84.31
2022-08-02T02:44:23.207Z,83.36
2022-08-02T02:46:57.965Z,84.18
2022-08-02T02:49:32.621Z,85.19
2022-08-02T02:52:06.788Z,85.49
2022-08-02T02:54:39.796Z,85.42
2022-08-02T02:57:13.599Z,85.31
2022-08-02T02:59:49.413Z,85.81
2022-08-02T03:02:23.320Z,86.09
2022-08-02T03:04:58.327Z,85.78
2022-08-02T03:07:32.892Z,84.62
2022-08-02T03:10:07.589Z,85.58
2022-08-02T03:12:40.107Z,86.12
2022-08-02T03:15:13.821Z,85.86
2022-08-02T03:17:47.181Z,85.29
2022-08-02T03:20:21.975Z,84.94
2022-08-02T03:22:54.363Z,85.70
2022-08-02T03:25:26.780Z,86.69
2022-08-02T03:27:59.155Z,86.08
2022-08-02T03:30:31.554Z,86.42
2022-08-02T03:33:04.686Z,86.71
2022-08-02T03:35:38.445Z,86.18
2022-08-02T03:38:12.389Z,86.49
2022-08-02T03:40:46.057Z,86.75
2022-08-02T03:43:18.880Z,86.84
2022-08-02T03:45:52.500Z,87.24
2022-08-02T03:48:33.923Z,87.47
2022-08-02T03:51:07.807Z,87.11
2022-08-02T03:53:40.894Z,85.88
2022-08-02T03:56:14.458Z,86.69
2022-08-02T03:58:49.352Z,87.44
2022-08-02T04:01:21.995Z,86.83
2022-08-02T04:03:55.113Z,86.37
2022-08-02T04:06:28.447Z,86.05
2022-08-02T04:09:00.936Z,86.96
2022-08-02T04:11:33.339Z,86.29
2022-08-02T04:14:07.801Z,87.08
2022-08-02T04:16:44.935Z,86.02
2022-08-02T04:19:25.299Z,87.26
2022-08-02T04:21:59.608Z,87.22
2022-08-02T04:24:37.868Z,87.55
2022-08-02T04:27:49.171Z,86.73
2022-08-02T04:30:05.285Z,87.75
2022-08-02T04:32:38.887Z,87.91
2022-08-02T04:35:20.504Z,88.29
2022-08-02T04:38:09.320Z,88.81
2022-08-02T04:40:49.843Z,88.13
2022-08-02T04:43:22.952Z,88.30
2022-08-02T04:45:55.521Z,87.74
2022-08-02T04:48:28.167Z,89.07
2022-08-02T04:51:01.259Z,89.03
2022-08-02T04:53:33.909Z,89.53
2022-08-02T04:56:06.278Z,87.06
2022-08-02T04:58:40.447Z,85.11
2022-08-02T05:01:13.391Z,86.10
2022-08-02T05:03:46.801Z,87.46
2022-08-02T05:06:20.655Z,87.04
2022-08-02T05:08:53.747Z,86.09
2022-08-02T05:11:36.254Z,87.28
2022-08-02T05:14:09.223Z,86.78
2022-08-02T05:16:41.606Z,84.76
2022-08-02T05:19:14.059Z,84.77
2022-08-02T05:21:47.080Z,84.50
2022-08-02T05:24:19.514Z,84.97
2022-08-02T05:26:51.919Z,82.60
2022-08-02T05:29:24.319Z,82.89
2022-08-02T05:31:56.738Z,81.92
2022-08-02T05:34:29.161Z,80.09
2022-08-02T05:37:02.195Z,78.54
2022-08-02T05:39:34.780Z,79.63
2022-08-02T05:42:09.574Z,77.43
2022-08-02T05:44:42.187Z,78.26
2022-08-02T05:47:14.614Z,77.05
2022-08-02T05:49:46.982Z,76.78
2022-08-02T05:52:24.214Z,73.23
2022-08-02T05:55:06.840Z,68.89
2022-08-02T05:57:48.710Z,68.03
2022-08-02T06:00:21.844Z,66.19
2022-08-02T06:03:16.135Z,62.55
2022-08-02T06:05:58.801Z,64.53
2022-08-02T06:08:37.396Z,65.03
2022-08-02T06:11:12.411Z,61.43
2022-08-02T06:13:45.982Z,59.64
2022-08-02T06:16:32.669Z,57.32
2022-08-02T06:19:05.789Z,55.10
2022-08-02T06:22:42.029Z,55.16
2022-08-02T06:24:35.023Z,52.23
2022-08-02T06:27:07.722Z,53.44
2022-08-02T06:29:40.931Z,51.25
2022-08-02T06:32:17.375Z,50.63
2022-08-02T06:34:49.827Z,49.51
2022-08-02T06:37:27.383Z,50.02
2022-08-02T06:40:06.446Z,50.01
2022-08-02T06:42:47.862Z,49.80
2022-08-02T06:45:20.322Z,49.44
2022-08-02T06:47:53.934Z,49.28
2022-08-02T06:50:26.687Z,47.42
2022-08-02T06:52:59.892Z,45.76
2022-08-02T06:55:33.082Z,46.76
2022-08-02T06:58:16.243Z,46.32
2022-08-02T07:00:48.846Z,45.82
2022-08-02T07:03:21.267Z,45.67
2022-08-02T07:05:54.323Z,47.32
2022-08-02T07:08:30.998Z,46.17
2022-08-02T07:11:05.801Z,45.87
2022-08-02T07:13:39.962Z,44.79
2022-08-02T07:16:12.505Z,45.78
2022-08-02T07:18:44.920Z,44.29
2022-08-02T07:21:17.327Z,44.82
2022-08-02T07:24:09.711Z,45.06
2022-08-02T07:27:08.551Z,44.46
2022-08-02T07:29:45.918Z,43.80
2022-08-02T07:32:21.198Z,43.61
2022-08-02T07:34:55.469Z,42.50
2022-08-02T07:37:51.182Z,42.79
2022-08-02T07:40:23.603Z,42.79
2022-08-02T07:43:03.474Z,42.64
2022-08-02T07:45:55.785Z,42.13
2022-08-02T07:48:29.032Z,41.88
2022-08-02T07:51:01.408Z,42.48
2022-08-02T07:53:50.625Z,43.05
2022-08-02T07:56:23.968Z,41.35
2022-08-02T07:58:57.079Z,39.79
2022-08-02T08:01:29.578Z,39.58
2022-08-02T08:04:01.998Z,40.06
2022-08-02T08:06:34.633Z,39.49
2022-08-02T08:09:07.080Z,40.56
2022-08-02T08:11:39.527Z,40.23
2022-08-02T08:14:16.675Z,38.93
2022-08-02T08:16:49.450Z,38.38
2022-08-02T08:19:21.867Z,38.42
2022-08-02T08:22:14.955Z,37.28
2022-08-02T08:24:47.935Z,38.79
2022-08-02T08:27:21.989Z,37.35
2022-08-02T08:29:55.114Z,38.96
2022-08-02T08:32:27.496Z,39.85
2022-08-02T08:34:59.960Z,37.36
2022-08-02T08:37:34.215Z,37.40
2022-08-02T08:40:07.836Z,38.65
2022-08-02T08:42:40.889Z,39.01
2022-08-02T08:45:14.031Z,37.68
2022-08-02T08:47:52.622Z,36.71
2022-08-02T08:50:26.617Z,34.91
2022-08-02T08:53:03.578Z,36.45
2022-08-02T08:55:37.097Z,36.40
2022-08-02T08:58:11.296Z,35.67
2022-08-02T09:00:44.469Z,34.71
2022-08-02T09:03:17.012Z,34.50
2022-08-02T09:05:49.760Z,35.62
2022-08-02T09:08:22.158Z,35.59
2022-08-02T09:10:54.567Z,36.87
2022-08-02T09:13:31.208Z,34.88
2022-08-02T09:16:28.803Z,35.68
2022-08-02T09:19:15.843Z,35.46
2022-08-02T09:21:49.739Z,34.63
2022-08-02T09:24:23.228Z,33.43
2022-08-02T09:26:55.776Z,34.04
2022-08-02T09:29:28.254Z,33.48
2022-08-02T09:32:03.989Z,34.69
2022-08-02T09:34:47.642Z,33.28
2022-08-02T09:37:24.455Z,33.37
2022-08-02T09:39:59.999Z,32.22
2022-08-02T09:42:32.483Z,32.17
2022-08-02T09:45:05.957Z,33.24
2022-08-02T09:47:48.892Z,33.19
2022-08-02T09:50:21.283Z,33.06
2022-08-02T09:52:55.774Z,32.77
2022-08-02T09:55:28.320Z,32.06
2022-08-02T09:58:17.214Z,33.86
2022-08-02T10:00:54.699Z,32.66
2022-08-02T10:03:31.936Z,31.95
2022-08-02T10:06:07.803Z,30.79
2022-08-02T10:08:40.331Z,32.37
2022-08-02T10:11:13.055Z,32.27
2022-08-02T10:13:46.188Z,32.64
2022-08-02T10:16:22.856Z,32.58
2022-08-02T10:18:59.220Z,32.04
2022-08-02T10:21:42.711Z,31.47
2022-08-02T10:24:23.096Z,33.16
2022-08-02T10:26:58.504Z,33.53
2022-08-02T10:29:44.805Z,31.96
2022-08-02T10:32:32.837Z,32.65
2022-08-02T10:35:19.685Z,32.03
2022-08-02T10:38:02.739Z,33.97
2022-08-02T10:40:44.379Z,31.96
2022-08-02T10:43:42.440Z,30.39
2022-08-02T10:46:23.229Z,30.08
2022-08-02T10:49:36.661Z,31.73
2022-08-02T10:52:08.731Z,31.98
2022-08-02T10:54:43.444Z,30.89
2022-08-02T10:57:26.799Z,30.38
2022-08-02T11:00:09.452Z,31.26
2022-08-02T11:02:46.057Z,32.51
2022-08-02T11:05:26.891Z,31.67
2022-08-02T11:08:18.025Z,31.65
2022-08-02T11:10:50.456Z,29.94
2022-08-02T11:13:25.612Z,29.97
2022-08-02T11:16:00.971Z,30.48
2022-08-02T11:19:06.637Z,30.60
2022-08-02T11:21:39.453Z,30.38
2022-08-02T11:24:28.040Z,30.20
2022-08-02T11:27:01.840Z,29.09
2022-08-02T11:29:38.111Z,28.91
2022-08-02T11:32:19.543Z,30.23
2022-08-02T11:34:53.947Z,30.81
2022-08-02T11:37:29.194Z,30.82
2022-08-02T11:40:03.719Z,31.43
2022-08-02T11:42:39.169Z,31.39
2022-08-02T11:45:12.709Z,31.55
2022-08-02T11:47:54.702Z,31.47
2022-08-02T11:50:30.392Z,31.28
2022-08-02T11:53:12.919Z,30.96
2022-08-02T11:55:45.967Z,32.05
2022-08-02T11:58:18.404Z,31.33
2022-08-02T12:00:53.068Z,32.15
2022-08-02T12:03:25.668Z,30.97
2022-08-02T12:06:05.866Z,29.49
2022-08-02T12:08:39.450Z,30.36
2022-08-02T12:11:12.506Z,30.52
2022-08-02T12:13:45.430Z,30.87
2022-08-02T12:16:52.839Z,30.18
2022-08-02T12:19:27.076Z,30.50
2022-08-02T12:22:12.265Z,30.97
2022-08-02T12:24:47.781Z,30.55
2022-08-02T12:27:31.823Z,29.69
2022-08-02T12:30:07.336Z,29.88
2022-08-02T12:32:40.190Z,29.30
2022-08-02T12:35:26.134Z,29.33
2022-08-02T12:38:09.315Z,29.78
2022-08-02T12:40:41.856Z,29.95
2022-08-02T12:43:20.231Z,29.68
2022-08-02T12:45:54.144Z,31.10
2022-08-02T12:48:38.596Z,30.11
2022-08-02T12:51:20.082Z,29.44
2022-08-02T12:53:59.928Z,29.77
2022-08-02T12:56:36.944Z,29.62
2022-08-02T12:59:11.462Z,30.18
2022-08-02T13:01:45.055Z,29.85
2022-08-02T13:04:17.498Z,31.15
2022-08-02T13:06:49.872Z,31.60
2022-08-02T13:09:27.178Z,31.11
2022-08-02T13:12:01.595Z,31.74
2022-08-02T13:14:40.369Z,31.87
2022-08-02T13:17:14.787Z,33.39
2022-08-02T13:19:47.208Z,32.24
2022-08-02T13:22:24.327Z,32.71
2022-08-02T13:25:01.494Z,35.04
2022-08-02T13:27:34.698Z,32.62
2022-08-02T13:30:08.731Z,33.72
2022-08-02T13:32:41.179Z,32.77
2022-08-02T13:35:18.201Z,33.81
2022-08-02T13:37:50.777Z,33.82
2022-08-02T13:40:23.466Z,34.53
2022-08-02T13:42:56.947Z,34.67
2022-08-02T13:45:30.007Z,34.00
2022-08-02T13:48:03.742Z,36.01
2022-08-02T13:50:37.935Z,34.73
2022-08-02T13:53:10.343Z,34.30
2022-08-02T13:55:43.421Z,33.22
2022-08-02T13:58:16.119Z,34.52
2022-08-02T14:00:49.158Z,34.27
2022-08-02T14:03:21.594Z,33.58
2022-08-02T14:05:58.810Z,34.37
2022-08-02T14:08:31.233Z,33.25
2022-08-02T14:11:04.148Z,35.02
2022-08-02T14:13:36.572Z,33.08
2022-08-02T14:16:10.111Z,33.15
2022-08-02T14:18:42.569Z,33.88
2022-08-02T14:21:15.287Z,33.61
2022-08-02T14:23:50.804Z,36.08
2022-08-02T14:26:27.327Z,35.63
2022-08-02T14:29:00.430Z,35.63
2022-08-02T14:31:33.551Z,36.01
2022-08-02T14:34:06.035Z,36.28
2022-08-02T14:36:38.424Z,37.35
2022-08-02T14:39:11.351Z,36.45
2022-08-02T14:42:00.038Z,36.89
2022-08-02T14:44:33.319Z,36.70
2022-08-02T14:47:06.507Z,36.03
2022-08-02T14:49:41.838Z,37.56
2022-08-02T14:52:16.363Z,38.47
2022-08-02T14:54:48.892Z,36.97
2022-08-02T14:57:21.465Z,37.63
2022-08-02T14:59:59.800Z,34.91
2022-08-02T15:02:33.198Z,36.55
2022-08-02T15:05:05.972Z,36.08
2022-08-02T15:07:43.333Z,35.98
2022-08-02T15:10:18.987Z,35.65
2022-08-02T15:12:51.463Z,36.48
2022-08-02T15:15:25.418Z,36.15
2022-08-02T15:17:58.530Z,37.55
2022-08-02T15:20:34.076Z,38.13
2022-08-02T15:23:07.361Z,38.49
2022-08-02T15:25:41.950Z,37.32
2022-08-02T15:28:14.361Z,37.77
2022-08-02T15:30:46.758Z,38.55
2022-08-02T15:33:19.754Z,40.10
2022-08-02T15:35:52.191Z,39.96
2022-08-02T15:38:24.599Z,39.62
2022-08-02T15:40:57.025Z,38.73
2022-08-02T15:43:29.691Z,39.01
2022-08-02T15:46:02.083Z,39.66
2022-08-02T15:48:35.389Z,39.56
2022-08-02T15:51:07.808Z,38.82
2022-08-02T15:53:40.209Z,39.42
2022-08-02T15:56:13.091Z,40.52
2022-08-02T15:58:45.650Z,42.01
2022-08-02T16:01:24.514Z,42.56
2022-08-02T16:03:57.640Z,42.85
2022-08-02T16:06:30.177Z,43.63
2022-08-02T16:09:03.413Z,43.73
2022-08-02T16:11:35.944Z,43.58
2022-08-02T16:14:08.872Z,44.84
2022-08-02T16:16:41.279Z,43.83
2022-08-02T16:19:47.159Z,44.72
2022-08-02T16:22:07.303Z,43.80
2022-08-02T16:24:43.378Z,45.55
2022-08-02T16:27:15.863Z,46.50
2022-08-02T16:29:48.277Z,47.10
2022-08-02T16:32:20.634Z,49.01
2022-08-02T16:35:07.722Z,48.50
2022-08-02T16:37:51.781Z,48.07
2022-08-02T16:40:25.315Z,49.16
2022-08-02T16:42:57.724Z,50.05
2022-08-02T16:45:32.682Z,48.92
2022-08-02T16:48:07.067Z,50.34
2022-08-02T16:50:42.346Z,50.33
2022-08-02T16:53:36.543Z,49.86
2022-08-02T16:56:09.995Z,50.55
2022-08-02T16:58:44.868Z,51.25
2022-08-02T17:01:17.838Z,50.55
2022-08-02T17:03:57.946Z,50.76
2022-08-02T17:06:31.196Z,51.59
2022-08-02T17:09:03.743Z,52.36
2022-08-02T17:11:41.447Z,51.84
2022-08-02T17:14:18.118Z,51.89
2022-08-02T17:16:52.703Z,51.21
2022-08-02T17:19:25.050Z,52.15
2022-08-02T17:21:58.181Z,51.56
2022-08-02T17:24:30.552Z,51.85
2022-08-02T17:27:03.902Z,50.90
2022-08-02T17:29:37.703Z,52.86
2022-08-02T17:32:14.921Z,53.08
2022-08-02T17:34:59.662Z,52.53
2022-08-02T17:37:33.415Z,52.18
2022-08-02T17:40:08.719Z,53.76
2022-08-02T17:42:42.040Z,53.34
2022-08-02T17:45:16.431Z,52.58
2022-08-02T17:48:03.839Z,52.66
2022-08-02T17:50:37.591Z,54.54
2022-08-02T17:53:11.464Z,54.43
2022-08-02T17:55:45.071Z,54.96
2022-08-02T17:58:23.535Z,55.80
2022-08-02T18:01:08.903Z,55.46
2022-08-02T18:03:56.695Z,56.00
2022-08-02T18:06:30.512Z,55.52
2022-08-02T18:09:04.096Z,55.72
2022-08-02T18:11:52.055Z,55.54
2022-08-02T18:14:26.420Z,55.67
2022-08-02T18:16:59.163Z,55.11
2022-08-02T18:19:33.060Z,55.13
2022-08-02T18:22:15.734Z,55.75
2022-08-02T18:24:49.015Z,56.47
2022-08-02T18:27:22.530Z,56.34
2022-08-02T18:30:00.188Z,56.78
2022-08-02T18:33:54.249Z,57.09
2022-08-02T18:35:29.608Z,58.08
2022-08-02T18:38:03.537Z,56.62
2022-08-02T18:40:37.044Z,56.85
2022-08-02T18:43:09.563Z,58.08
2022-08-02T18:46:06.489Z,58.27
2022-08-02T18:48:44.169Z,58.92
2022-08-02T18:51:19.571Z,59.53
2022-08-02T18:53:53.222Z,60.58
2022-08-02T18:56:26.314Z,61.10
2022-08-02T18:59:04.803Z,61.00
2022-08-02T19:01:48.590Z,60.60
2022-08-02T19:04:27.524Z,61.36
2022-08-02T19:07:07.001Z,62.44
2022-08-02T19:09:40.635Z,64.09
2022-08-02T19:12:15.938Z,63.97
2022-08-02T19:15:00.916Z,63.31
2022-08-02T19:17:53.745Z,63.66
2022-08-02T19:20:26.700Z,64.51
2022-08-02T19:23:04.765Z,65.58
2022-08-02T19:25:38.975Z,65.72
2022-08-02T19:28:12.123Z,65.62
2022-08-02T19:30:44.495Z,66.21
2022-08-02T19:33:54.496Z,67.19
2022-08-02T19:36:09.439Z,66.99
2022-08-02T19:38:44.911Z,66.56
2022-08-02T19:41:17.641Z,66.85
2022-08-02T19:44:24.371Z,67.06
2022-08-02T19:46:48.954Z,67.05
2022-08-02T19:52:21.055Z,67.56
2022-08-02T19:54:57.893Z,67.98
2022-08-02T19:57:34.636Z,68.54
2022-08-02T20:00:10.589Z,68.97
2022-08-02T20:02:48.695Z,69.21
2022-08-02T20:05:24.197Z,69.52
2022-08-02T20:07:59.665Z,69.66
2022-08-02T20:10:33.035Z,70.12
2022-08-02T20:13:06.208Z,70.24
2022-08-02T20:15:55.884Z,70.71
2022-08-02T20:18:31.096Z,70.46
2022-08-02T20:21:03.637Z,70.99
2022-08-02T20:23:36.044Z,70.70
2022-08-02T20:26:09.007Z,70.63
2022-08-02T20:28:41.576Z,69.64
2022-08-02T20:31:14.727Z,69.27
2022-08-02T20:33:55.664Z,70.27
2022-08-02T20:36:28.808Z,70.23
2022-08-02T20:39:01.212Z,70.90
2022-08-02T20:41:36.443Z,71.37
2022-08-02T20:44:30.612Z,71.41
2022-08-02T20:47:04.668Z,72.10
2022-08-02T20:49:57.963Z,72.71
2022-08-02T20:52:30.727Z,72.79
2022-08-02T20:55:03.296Z,72.57
2022-08-02T20:57:48.810Z,72.71
2022-08-02T21:00:28.073Z,73.42
2022-08-02T21:03:02.713Z,74.11
2022-08-02T21:05:43.691Z,73.63
2022-08-02T21:08:27.939Z,74.00
2022-08-02T21:11:00.651Z,73.84
2022-08-02T21:13:46.486Z,74.82
2022-08-02T21:16:22.041Z,75.13
2022-08-02T21:18:59.949Z,74.24
2022-08-02T21:21:32.941Z,75.26
2022-08-02T21:24:05.618Z,74.56
2022-08-02T21:26:38.020Z,74.99
2022-08-02T21:29:10.442Z,74.90
2022-08-02T21:31:46.114Z,75.51
2022-08-02T21:34:27.265Z,75.58
2022-08-02T21:37:00.143Z,75.90
2022-08-02T21:39:42.281Z,76.01
2022-08-02T21:42:23.592Z,75.75
2022-08-02T21:44:56.137Z,76.53
2022-08-02T21:47:30.957Z,75.90
2022-08-02T21:50:13.294Z,76.31
2022-08-02T21:52:51.091Z,76.45
2022-08-02T21:56:00.991Z,76.37
2022-08-02T21:58:20.014Z,75.97
2022-08-02T22:00:52.567Z,76.17
2022-08-02T22:03:24.959Z,76.71
2022-08-02T22:06:02.709Z,77.08
2022-08-02T22:08:37.076Z,76.89
2022-08-02T22:11:13.467Z,77.14
2022-08-02T22:13:49.811Z,77.52
2022-08-02T22:16:22.498Z,77.54
2022-08-02T22:18:56.175Z,77.30
2022-08-02T22:21:33.582Z,77.71
2022-08-02T22:24:29.612Z,78.01
2022-08-02T22:27:02.801Z,77.96
2022-08-02T22:29:35.163Z,78.48
2022-08-02T22:32:08.090Z,78.72
2022-08-02T22:34:51.614Z,79.02
2022-08-02T22:40:18.062Z,79.08
2022-08-02T22:42:50.435Z,79.07
2022-08-02T22:45:22.812Z,78.92
2022-08-02T22:47:55.263Z,79.30
2022-08-02T22:50:28.183Z,79.82
2022-08-02T22:53:03.094Z,80.28
2022-08-02T22:55:35.691Z,80.13
2022-08-02T22:58:14.864Z,79.81
2022-08-02T22:59:05.572Z,67.66
2022-08-02T23:00:51.945Z,79.81
2022-08-02T23:03:24.414Z,79.94
2022-08-02T23:05:56.856Z,80.18
2022-08-02T23:08:31.728Z,79.92
2022-08-02T23:11:04.119Z,80.21
2022-08-02T23:13:36.535Z,80.17
2022-08-02T23:16:26.927Z,80.94
2022-08-02T23:19:17.514Z,81.36
2022-08-02T23:22:01.612Z,81.95
2022-08-02T23:24:36.276Z,81.55
2022-08-02T23:27:08.717Z,81.39
2022-08-02T23:29:41.460Z,81.62
2022-08-02T23:32:14.181Z,81.42
2022-08-02T23:34:46.859Z,81.47
2022-08-02T23:37:19.213Z,81.03
2022-08-02T23:39:52.831Z,81.00
2022-08-02T23:42:25.270Z,81.38
2022-08-02T23:44:57.779Z,81.41
2022-08-02T23:47:30.642Z,81.18
2022-08-02T23:50:03.118Z,81.32
2022-08-02T23:52:35.539Z,81.01
2022-08-02T23:55:09.367Z,81.70
2022-08-02T23:57:41.800Z,81.99
